TW-0006 weather

Hualien Air Base
Hualien City, Hualien County, Taiwan

Public forecast

Using degrees Celsius for public forecast. Weather courtesy of forecast.io.

Closest aviation weather report (METAR) to Hualien Air Base

Closest report is Taichung Ching Chuang Kang Airport, 55.0 nm (101.8 km) WNW. Retrieved 2020/04/04 08:30 UTC (4 minutes ago):

RCMQ 040830Z 01019KT 9999 FEW010 BKN030 BKN060 19/15 Q1016 NOSIG RMK A3003

Closest aviation forecast (TAF) to Hualien Air Base

Closest forecast is Taichung Ching Chuang Kang Airport, 55.0 nm (101.8 km) WNW. Retrieved 2020/04/04 06:21 UTC (2 hours ago):

TAF RCMQ 040500Z 0406/0506 36015G25KT 9999 FEW010 BKN050 BKN080 TX23/0505Z TN17/0421Z BECMG 0412/0415 FEW010 BKN080 TEMPO 0418/0423 FEW010 SCT080 BECMG 0501/0504 FEW008 SCT020 BKN040